Time;durP1;ratioP1;P1;durP2;ratioP2;P2;SDS_P1;SDS_P2;PMS_P1;PMS_P2;Temp;Humidity;BMP_temperature;BMP_pressure;BME280_temperature;BME280_humidity;BME280_pressure;Samples;Min_cycle;Max_cycle;Signal;HPM_P1;HPM_P2
2024/01/05 00:01:45;;;;;;;10.05;2.10;;;7.60;99.90;;;;;;5030962;28;20022;-80
2024/01/05 00:04:11;;;;;;;9.63;1.23;;;7.70;99.90;;;;;;5029651;28;20074;-79
2024/01/05 00:06:40;;;;;;;11.75;2.00;;;7.70;99.90;;;;;;5031085;28;20053;-79
2024/01/05 00:09:09;;;;;;;15.65;2.47;;;7.70;99.90;;;;;;5031137;28;20010;-79
2024/01/05 00:11:34;;;;;;;;;;;7.70;99.90;;;;;;5029993;28;20014;-79
2024/01/05 00:14:00;;;;;;;7.13;1.38;;;7.70;99.90;;;;;;5030706;28;19910;-79
2024/01/05 00:16:27;;;;;;;10.88;1.77;;;7.70;99.90;;;;;;5029846;28;20032;-79
2024/01/05 00:18:52;;;;;;;6.82;1.23;;;7.70;99.90;;;;;;5023626;28;20592;-79
2024/01/05 00:21:25;;;;;;;7.53;2.03;;;7.70;99.90;;;;;;5022448;28;20030;-79
2024/01/05 00:23:52;;;;;;;11.30;2.08;;;7.70;99.90;;;;;;5022156;28;20032;-78
2024/01/05 00:26:18;;;;;;;13.65;1.38;;;7.70;99.90;;;;;;5020438;28;20033;-78
2024/01/05 00:28:45;;;;;;;13.13;1.90;;;7.70;99.90;;;;;;5017641;28;20076;-79
2024/01/05 00:31:12;;;;;;;7.25;1.80;;;7.70;99.90;;;;;;5016625;28;20037;-78
2024/01/05 00:33:39;;;;;;;10.05;2.15;;;7.70;99.90;;;;;;5015886;28;20087;-78
2024/01/05 00:36:11;;;;;;;17.15;2.92;;;7.70;99.90;;;;;;5017679;28;20026;-79
2024/01/05 00:38:37;;;;;;;8.95;2.38;;;7.70;99.90;;;;;;5016974;28;20064;-79
2024/01/05 00:41:03;;;;;;;6.43;1.08;;;7.70;99.90;;;;;;5024078;28;20026;-79
2024/01/05 00:43:29;;;;;;;7.88;1.90;;;7.70;99.90;;;;;;5029174;28;20054;-79
2024/01/05 00:45:55;;;;;;;15.60;2.70;;;7.80;99.90;;;;;;5029132;28;20033;-79
2024/01/05 00:48:21;;;;;;;13.75;1.52;;;7.90;99.90;;;;;;5025844;28;20034;-79
2024/01/05 00:50:47;;;;;;;9.57;2.13;;;7.80;99.90;;;;;;5025113;28;20084;-78
2024/01/05 00:53:12;;;;;;;12.23;1.83;;;7.80;99.90;;;;;;5016904;28;20017;-77
2024/01/05 00:55:38;;;;;;;9.43;2.25;;;7.80;99.90;;;;;;5013699;28;20044;-79
2024/01/05 00:58:04;;;;;;;10.00;1.73;;;7.80;99.90;;;;;;5020845;28;20034;-78
2024/01/05 01:00:30;;;;;;;8.60;1.95;;;7.80;99.90;;;;;;5025006;28;20034;-79
2024/01/05 01:02:56;;;;;;;15.18;2.47;;;7.80;99.90;;;;;;5027846;28;20041;-79
2024/01/05 01:05:22;;;;;;;10.15;2.03;;;7.70;99.90;;;;;;5030226;28;20375;-79
2024/01/05 01:07:47;;;;;;;6.90;1.30;;;7.70;99.90;;;;;;5029185;28;20040;-79
2024/01/05 01:10:13;;;;;;;13.27;1.67;;;7.80;99.90;;;;;;5028865;28;20066;-79
2024/01/05 01:12:39;;;;;;;8.45;1.90;;;7.80;99.90;;;;;;5030371;28;20426;-79
2024/01/05 01:15:06;;;;;;;12.20;3.03;;;7.80;99.90;;;;;;5028879;28;20076;-80
2024/01/05 01:17:32;;;;;;;9.88;1.88;;;7.80;99.90;;;;;;5028966;28;20022;-80
2024/01/05 01:19:58;;;;;;;15.05;1.92;;;7.80;99.90;;;;;;5028140;28;20029;-80
2024/01/05 01:22:23;;;;;;;11.20;1.45;;;9.30;99.90;;;;;;5030625;28;20026;-80
2024/01/05 01:24:49;;;;;;;13.57;1.98;;;7.70;99.90;;;;;;5026905;28;20026;-80
2024/01/05 01:27:15;;;;;;;9.27;2.00;;;7.70;99.90;;;;;;5028522;28;20018;-79
2024/01/05 01:29:41;;;;;;;7.60;1.55;;;7.70;99.90;;;;;;5029010;28;20022;-79
2024/01/05 01:32:09;;;;;;;12.90;1.85;;;7.70;99.90;;;;;;5027847;28;20010;-79
2024/01/05 01:34:35;;;;;;;15.75;1.90;;;7.60;99.90;;;;;;5029270;28;20049;-80
2024/01/05 01:37:02;;;;;;;10.95;2.30;;;;;;;;;;5028764;28;20057;-79
2024/01/05 01:39:28;;;;;;;12.73;2.33;;;7.60;99.90;;;;;;5024620;28;20026;-79
2024/01/05 01:41:53;;;;;;;12.98;2.15;;;7.60;99.90;;;;;;5023895;28;20109;-79
2024/01/05 01:44:19;;;;;;;6.40;0.85;;;8.00;99.90;;;;;;5022377;28;20018;-79
2024/01/05 01:46:45;;;;;;;9.85;1.40;;;7.60;99.90;;;;;;5021740;28;20068;-79
2024/01/05 01:49:10;;;;;;;13.15;2.55;;;8.40;99.90;;;;;;5022792;28;20079;-79
2024/01/05 01:51:36;;;;;;;12.23;2.15;;;7.60;99.90;;;;;;5021237;28;20025;-79
2024/01/05 01:54:05;;;;;;;7.88;1.67;;;7.60;99.90;;;;;;5024217;28;20025;-79
2024/01/05 01:56:33;;;;;;;7.80;1.23;;;7.70;99.90;;;;;;5025631;28;20057;-79
2024/01/05 01:58:58;;;;;;;8.00;1.90;;;7.70;99.90;;;;;;5026225;28;20072;-79
2024/01/05 02:01:24;;;;;;;8.52;0.85;;;10.00;99.90;;;;;;5028394;28;20473;-79
2024/01/05 02:03:50;;;;;;;11.50;1.50;;;7.70;99.90;;;;;;5031407;28;20069;-79
2024/01/05 02:06:16;;;;;;;6.90;0.93;;;7.70;99.90;;;;;;5030694;28;20033;-79
2024/01/05 02:08:43;;;;;;;6.78;0.85;;;7.70;99.90;;;;;;5032445;28;20021;-79
2024/01/05 02:11:09;;;;;;;5.80;1.27;;;9.00;99.90;;;;;;5030114;28;20116;-79
2024/01/05 02:13:35;;;;;;;6.05;1.50;;;7.70;99.90;;;;;;5028682;28;20022;-79
2024/01/05 02:16:00;;;;;;;7.53;1.13;;;7.70;99.90;;;;;;5030910;28;20030;-79
2024/01/05 02:18:26;;;;;;;7.10;0.70;;;7.70;99.90;;;;;;5031201;28;20034;-79
2024/01/05 02:20:52;;;;;;;7.47;0.90;;;7.80;99.90;;;;;;5030174;28;20022;-79
2024/01/05 02:23:26;;;;;;;8.60;1.13;;;7.80;99.90;;;;;;5032234;28;20025;-80
2024/01/05 02:25:55;;;;;;;5.93;0.73;;;7.80;99.90;;;;;;5031538;28;20010;-79
2024/01/05 02:28:21;;;;;;;8.03;0.43;;;7.80;99.90;;;;;;5030253;28;20030;-79
2024/01/05 02:30:47;;;;;;;7.13;0.50;;;7.80;99.90;;;;;;5031754;28;20285;-79
2024/01/05 02:33:13;;;;;;;9.43;1.02;;;7.80;99.90;;;;;;5030621;28;20022;-79
2024/01/05 02:35:39;;;;;;;7.15;0.98;;;7.80;99.90;;;;;;5029511;28;20033;-80
2024/01/05 02:38:05;;;;;;;9.50;0.88;;;7.80;99.90;;;;;;5031297;28;20038;-80
2024/01/05 02:40:31;;;;;;;6.78;0.43;;;7.80;99.90;;;;;;5031564;28;20474;-80
2024/01/05 02:42:57;;;;;;;9.77;1.10;;;7.90;99.90;;;;;;5031956;28;20057;-80
2024/01/05 02:45:23;;;;;;;11.75;1.35;;;7.90;99.90;;;;;;5030699;28;20481;-80
2024/01/05 02:47:50;;;;;;;5.95;0.90;;;7.90;99.90;;;;;;5032269;28;20049;-80
2024/01/05 02:50:16;;;;;;;8.25;1.05;;;7.90;99.90;;;;;;5030328;28;19994;-80
2024/01/05 02:52:42;;;;;;;9.05;0.82;;;7.90;99.90;;;;;;5030281;28;20040;-80
2024/01/05 02:55:09;;;;;;;2.95;0.38;;;7.90;99.90;;;;;;5030241;28;20018;-80
2024/01/05 02:57:35;;;;;;;5.82;0.52;;;7.90;99.90;;;;;;5029295;28;20021;-80
2024/01/05 03:00:03;;;;;;;5.63;0.30;;;7.90;99.90;;;;;;5029977;28;20033;-80
2024/01/05 03:02:29;;;;;;;6.65;0.20;;;;;;;;;;5031599;28;20370;-80
2024/01/05 03:04:54;;;;;;;9.52;0.77;;;8.00;99.90;;;;;;5031043;28;20026;-80
2024/01/05 03:07:20;;;;;;;6.13;1.10;;;;;;;;;;5032379;28;20037;-80
2024/01/05 03:09:46;;;;;;;6.75;0.50;;;8.00;99.90;;;;;;5030887;28;20010;-80
2024/01/05 03:12:12;;;;;;;7.32;0.20;;;;;;;;;;5031401;28;20028;-80
2024/01/05 03:14:38;;;;;;;6.88;0.28;;;8.10;99.90;;;;;;5031971;28;20033;-82
2024/01/05 03:17:04;;;;;;;6.55;0.82;;;8.20;99.90;;;;;;5031284;28;20022;-80
2024/01/05 03:19:30;;;;;;;8.18;0.68;;;8.20;99.90;;;;;;5030391;28;20166;-80
2024/01/05 03:21:56;;;;;;;10.52;1.25;;;8.30;99.90;;;;;;5031138;28;20030;-80
2024/01/05 03:24:22;;;;;;;12.35;0.95;;;8.30;99.90;;;;;;5031985;28;20025;-79
2024/01/05 03:26:48;;;;;;;3.15;0.65;;;8.30;99.90;;;;;;5030119;28;20026;-80
2024/01/05 03:29:14;;;;;;;2.85;0.30;;;;;;;;;;5030922;28;20026;-80
2024/01/05 03:31:42;;;;;;;5.38;0.65;;;8.40;99.90;;;;;;5030119;28;20036;-79
2024/01/05 03:34:08;;;;;;;8.88;0.40;;;8.40;99.90;;;;;;5031244;28;20086;-79
2024/01/05 03:36:34;;;;;;;5.03;0.73;;;8.40;99.90;;;;;;5030009;28;20101;-79
2024/01/05 03:39:00;;;;;;;6.35;0.13;;;8.50;99.90;;;;;;5030399;28;20037;-79
2024/01/05 03:41:26;;;;;;;3.90;0.52;;;8.40;99.90;;;;;;5032139;28;20037;-80
2024/01/05 03:43:52;;;;;;;8.13;0.65;;;;;;;;;;5030433;28;20034;-79
2024/01/05 03:46:18;;;;;;;5.25;0.10;;;8.50;99.90;;;;;;5031351;28;20034;-79
2024/01/05 03:48:43;;;;;;;7.78;0.30;;;8.50;99.90;;;;;;5031564;28;20026;-79
2024/01/05 03:51:09;;;;;;;2.90;0.70;;;8.60;99.90;;;;;;5027207;28;20125;-78
2024/01/05 03:53:34;;;;;;;2.15;0.17;;;8.60;99.90;;;;;;5031496;28;20029;-79
2024/01/05 03:56:00;;;;;;;6.25;0.88;;;8.60;99.90;;;;;;5028251;28;20041;-79
2024/01/05 03:58:28;;;;;;;4.57;0.43;;;8.60;99.90;;;;;;5030103;28;20034;-79
2024/01/05 04:00:54;;;;;;;5.90;0.57;;;8.60;99.90;;;;;;5031111;28;20508;-79
2024/01/05 04:03:20;;;;;;;6.32;0.50;;;8.60;99.90;;;;;;5031976;28;20044;-78
2024/01/05 04:05:46;;;;;;;6.28;0.05;;;8.60;99.90;;;;;;5029301;28;20018;-79
2024/01/05 04:08:12;;;;;;;5.25;0.50;;;8.60;99.90;;;;;;5030535;28;20033;-79
2024/01/05 04:10:38;;;;;;;7.25;0.50;;;8.70;99.90;;;;;;5030794;28;20086;-79
2024/01/05 04:13:04;;;;;;;2.45;0.00;;;8.60;99.90;;;;;;5028629;28;20024;-79
2024/01/05 04:15:30;;;;;;;5.75;0.50;;;;;;;;;;5029277;28;20026;-80
2024/01/05 04:17:56;;;;;;;3.90;0.00;;;8.50;99.90;;;;;;5030208;28;20041;-79
2024/01/05 04:20:22;;;;;;;5.93;0.00;;;8.80;99.90;;;;;;5030223;28;20030;-79
2024/01/05 04:22:47;;;;;;;4.85;0.30;;;8.50;99.90;;;;;;5029857;28;20026;-79
2024/01/05 04:25:13;;;;;;;2.28;0.10;;;8.40;99.90;;;;;;5028893;28;20022;-80
2024/01/05 04:27:39;;;;;;;2.25;0.00;;;8.40;99.90;;;;;;5029982;28;20552;-79
2024/01/05 04:30:05;;;;;;;5.50;0.38;;;8.40;99.90;;;;;;5028662;28;20105;-79
2024/01/05 04:32:31;;;;;;;8.27;0.32;;;8.40;99.90;;;;;;5029397;28;20022;-79
2024/01/05 04:34:56;;;;;;;10.45;1.42;;;8.40;99.90;;;;;;5030217;28;20493;-79
2024/01/05 04:37:22;;;;;;;5.20;0.70;;;8.40;99.90;;;;;;5030568;28;20022;-79
2024/01/05 04:39:47;;;;;;;1.10;0.00;;;8.40;99.90;;;;;;5029677;28;20081;-79
2024/01/05 04:42:14;;;;;;;5.65;0.30;;;8.40;99.90;;;;;;5028792;28;20014;-79
2024/01/05 04:44:40;;;;;;;4.78;1.20;;;8.40;99.90;;;;;;5028949;28;20018;-81
2024/01/05 04:47:06;;;;;;;5.13;0.75;;;8.40;99.90;;;;;;5027755;28;20367;-80
2024/01/05 04:49:33;;;;;;;4.32;0.47;;;;;;;;;;5027077;28;20077;-81
2024/01/05 04:52:00;;;;;;;5.28;0.30;;;;;;;;;;5024753;28;20029;-80
2024/01/05 04:54:25;;;;;;;3.90;0.28;;;8.40;99.90;;;;;;5025350;28;20053;-80
2024/01/05 04:56:51;;;;;;;4.43;0.35;;;8.50;99.90;;;;;;5025907;28;20477;-80
2024/01/05 04:59:17;;;;;;;2.17;0.03;;;8.40;99.90;;;;;;5019064;28;20072;-78
2024/01/05 05:01:42;;;;;;;4.93;0.20;;;8.50;99.90;;;;;;5014435;28;20054;-78
2024/01/05 05:04:08;;;;;;;1.90;0.00;;;8.50;99.90;;;;;;5014441;28;20049;-78
2024/01/05 05:06:34;;;;;;;7.90;0.10;;;8.50;99.90;;;;;;5014430;28;20026;-78
2024/01/05 05:08:59;;;;;;;4.93;0.10;;;8.50;99.90;;;;;;5013927;28;20036;-78
2024/01/05 05:11:25;;;;;;;2.15;0.32;;;8.40;99.90;;;;;;5013922;28;20030;-78
2024/01/05 05:13:50;;;;;;;9.98;0.73;;;8.40;99.90;;;;;;5015114;28;20030;-78
2024/01/05 05:16:16;;;;;;;6.00;0.00;;;8.40;99.90;;;;;;5013098;28;20029;-78
2024/01/05 05:18:41;;;;;;;4.47;0.00;;;8.40;99.90;;;;;;5014776;28;20081;-78
2024/01/05 05:21:07;;;;;;;5.05;0.40;;;8.40;99.90;;;;;;5012590;28;20026;-78
2024/01/05 05:23:33;;;;;;;5.05;0.13;;;8.50;99.90;;;;;;5012897;28;20022;-78
2024/01/05 05:25:59;;;;;;;5.22;0.10;;;8.50;99.90;;;;;;5013521;28;20037;-78
2024/01/05 05:28:27;;;;;;;1.45;0.10;;;8.50;99.90;;;;;;5014213;28;20030;-78
2024/01/05 05:30:52;;;;;;;4.25;0.55;;;8.40;99.90;;;;;;5014391;28;20089;-78
2024/01/05 05:33:19;;;;;;;2.97;0.10;;;8.50;99.90;;;;;;5012462;28;20030;-78
2024/01/05 05:35:45;;;;;;;3.25;0.00;;;8.40;99.90;;;;;;5014774;28;20014;-78
2024/01/05 05:38:10;;;;;;;5.25;0.10;;;8.40;99.90;;;;;;5018163;28;20057;-78
2024/01/05 05:40:36;;;;;;;3.53;0.10;;;8.40;99.90;;;;;;5018006;28;20447;-78
2024/01/05 05:43:02;;;;;;;1.23;0.20;;;8.50;99.90;;;;;;5017716;28;20396;-78
2024/01/05 05:45:27;;;;;;;3.85;0.10;;;8.50;99.90;;;;;;5016719;28;20404;-78
2024/01/05 05:47:53;;;;;;;5.75;0.32;;;8.50;99.90;;;;;;5016178;28;20052;-78
2024/01/05 05:50:18;;;;;;;3.78;0.10;;;8.50;99.90;;;;;;5018146;28;20030;-78
2024/01/05 05:52:46;;;;;;;4.55;0.57;;;8.50;99.90;;;;;;5016678;28;20025;-78
2024/01/05 05:55:12;;;;;;;5.17;0.00;;;8.50;99.90;;;;;;5016429;28;20049;-78
2024/01/05 05:57:41;;;;;;;3.30;0.00;;;8.40;99.90;;;;;;5016815;28;20516;-78
2024/01/05 06:00:08;;;;;;;3.83;0.20;;;8.40;99.90;;;;;;5017017;28;20029;-78
2024/01/05 06:02:33;;;;;;;4.60;0.38;;;8.40;99.90;;;;;;5016587;28;20370;-78
2024/01/05 06:04:59;;;;;;;2.47;0.05;;;8.30;99.90;;;;;;5017248;28;20033;-78
2024/01/05 06:07:25;;;;;;;6.10;0.22;;;8.20;99.90;;;;;;5015979;28;20029;-78
2024/01/05 06:09:51;;;;;;;2.90;0.17;;;8.30;99.90;;;;;;5017820;28;20025;-78
2024/01/05 06:12:17;;;;;;;2.05;0.10;;;8.20;99.90;;;;;;5016047;28;20076;-78
2024/01/05 06:14:44;;;;;;;3.05;0.00;;;8.10;99.90;;;;;;5017867;28;20078;-78
2024/01/05 06:17:09;;;;;;;3.70;0.13;;;8.20;99.90;;;;;;5017282;28;20026;-78
2024/01/05 06:19:35;;;;;;;3.13;0.00;;;8.10;99.90;;;;;;5016136;28;20038;-78
2024/01/05 06:22:01;;;;;;;9.07;0.00;;;8.10;99.90;;;;;;5015789;28;20428;-78
2024/01/05 06:24:28;;;;;;;2.28;0.10;;;8.10;99.90;;;;;;5017680;28;20030;-78
2024/01/05 06:26:54;;;;;;;6.57;0.43;;;8.10;99.90;;;;;;5017378;28;20025;-78
2024/01/05 06:29:20;;;;;;;4.75;0.10;;;8.00;99.90;;;;;;5016421;28;20025;-78
2024/01/05 06:31:46;;;;;;;5.18;0.10;;;8.00;99.90;;;;;;5017896;28;20022;-79
2024/01/05 06:34:11;;;;;;;7.60;0.10;;;8.00;99.90;;;;;;5017098;28;20022;-78
2024/01/05 06:36:37;;;;;;;0.47;0.00;;;8.00;99.90;;;;;;5016112;28;20053;-78
2024/01/05 06:39:02;;;;;;;0.68;0.00;;;8.30;99.90;;;;;;5016694;28;20041;-78
2024/01/05 06:41:28;;;;;;;5.25;0.20;;;8.00;99.90;;;;;;5016602;28;20018;-78
2024/01/05 06:43:54;;;;;;;4.35;0.05;;;8.00;99.90;;;;;;5015153;28;20029;-78
2024/01/05 06:46:20;;;;;;;4.88;0.10;;;8.00;99.90;;;;;;5016085;28;20056;-78
2024/01/05 06:48:45;;;;;;;0.82;0.00;;;8.00;99.90;;;;;;5017141;28;20033;-78
2024/01/05 06:51:11;;;;;;;7.20;0.35;;;7.90;99.90;;;;;;5016524;28;20040;-78
2024/01/05 06:53:36;;;;;;;4.00;0.20;;;7.90;99.90;;;;;;5017137;28;20496;-79
2024/01/05 06:56:02;;;;;;;1.90;0.10;;;7.90;99.90;;;;;;5019978;28;20095;-79
2024/01/05 06:58:28;;;;;;;3.90;0.00;;;7.90;99.90;;;;;;5019644;28;20040;-78
2024/01/05 07:00:54;;;;;;;3.97;0.15;;;7.80;99.90;;;;;;5016825;28;20370;-78
2024/01/05 07:03:20;;;;;;;2.53;0.22;;;7.80;99.90;;;;;;5016731;28;20034;-79
2024/01/05 07:05:46;;;;;;;1.65;0.05;;;7.80;99.90;;;;;;5017373;28;20490;-79
2024/01/05 07:08:11;;;;;;;2.25;0.28;;;7.80;99.90;;;;;;5020649;28;20022;-79
2024/01/05 07:10:37;;;;;;;8.07;1.08;;;8.30;99.90;;;;;;5021562;28;20374;-79
2024/01/05 07:13:08;;;;;;;1.55;0.00;;;7.90;99.90;;;;;;5016679;28;20481;-78
2024/01/05 07:15:34;;;;;;;1.63;0.00;;;7.80;99.90;;;;;;5016235;28;20018;-77
2024/01/05 07:17:59;;;;;;;0.00;0.00;;;7.70;99.90;;;;;;5017781;28;20381;-78
2024/01/05 07:20:25;;;;;;;0.20;0.00;;;7.60;99.90;;;;;;5017138;28;20421;-78
2024/01/05 07:22:50;;;;;;;1.27;0.00;;;7.60;99.90;;;;;;5017038;28;20025;-79
2024/01/05 07:25:16;;;;;;;1.30;0.00;;;7.50;99.90;;;;;;5015594;28;20126;-79
2024/01/05 07:27:42;;;;;;;3.90;0.25;;;7.50;99.90;;;;;;5016786;28;20022;-78
2024/01/05 07:30:07;;;;;;;0.08;0.00;;;7.50;99.90;;;;;;5017644;28;20026;-78
2024/01/05 07:32:33;;;;;;;1.85;0.00;;;7.50;99.90;;;;;;5016687;28;20517;-77
2024/01/05 07:34:59;;;;;;;0.40;0.00;;;7.40;99.90;;;;;;5015389;28;20374;-76
2024/01/05 07:37:25;;;;;;;0.20;0.00;;;7.40;99.90;;;;;;5014390;28;20444;-76
2024/01/05 07:39:50;;;;;;;0.00;0.00;;;7.40;99.90;;;;;;5014995;28;20037;-78
2024/01/05 07:42:16;;;;;;;0.00;0.00;;;7.40;99.90;;;;;;5014565;28;20057;-76
2024/01/05 07:44:41;;;;;;;0.90;0.00;;;7.30;99.90;;;;;;5015777;28;20393;-77
2024/01/05 07:47:09;;;;;;;0.00;0.00;;;7.40;99.90;;;;;;5015830;28;20083;-77
2024/01/05 07:49:35;;;;;;;0.00;0.00;;;7.30;99.90;;;;;;5017806;28;20014;-77
2024/01/05 07:52:00;;;;;;;0.63;0.00;;;7.30;99.90;;;;;;5015873;28;20060;-77
2024/01/05 07:54:26;;;;;;;0.43;0.00;;;7.20;99.90;;;;;;5015690;28;20393;-77
2024/01/05 07:56:51;;;;;;;0.55;0.00;;;7.20;99.90;;;;;;5015715;28;20096;-77
2024/01/05 07:59:17;;;;;;;0.95;0.10;;;7.20;99.90;;;;;;5016925;28;20026;-81
2024/01/05 08:01:43;;;;;;;0.00;0.00;;;7.10;99.90;;;;;;5021366;28;20076;-81
2024/01/05 08:04:09;;;;;;;3.03;0.00;;;7.10;99.90;;;;;;5021285;28;20025;-80
2024/01/05 08:06:34;;;;;;;0.20;0.00;;;7.10;99.90;;;;;;5023778;28;20014;-81
2024/01/05 08:09:00;;;;;;;0.28;0.00;;;8.50;99.90;;;;;;5027382;28;20117;-81
2024/01/05 08:11:26;;;;;;;0.68;0.00;;;7.00;99.90;;;;;;5022531;28;20030;-79
2024/01/05 08:13:52;;;;;;;0.00;0.00;;;7.00;99.90;;;;;;5020147;28;20021;-79
2024/01/05 08:16:17;;;;;;;0.95;0.00;;;6.90;99.90;;;;;;5020821;28;20026;-80
2024/01/05 08:18:43;;;;;;;0.00;0.00;;;6.90;99.90;;;;;;5022721;28;20080;-80
2024/01/05 08:21:09;;;;;;;0.10;0.05;;;6.90;99.90;;;;;;5024537;28;20026;-79
2024/01/05 08:23:35;;;;;;;0.98;0.00;;;6.90;99.90;;;;;;5022878;28;20026;-79
2024/01/05 08:26:06;;;;;;;0.22;0.00;;;6.90;99.90;;;;;;5023653;28;20021;-80
2024/01/05 08:28:31;;;;;;;1.10;0.00;;;6.80;99.90;;;;;;5022418;28;20029;-79
2024/01/05 08:30:58;;;;;;;0.85;0.00;;;6.80;99.90;;;;;;5023463;28;20049;-79
2024/01/05 08:33:23;;;;;;;0.80;0.00;;;6.80;99.90;;;;;;5023224;28;20022;-80
2024/01/05 08:35:49;;;;;;;1.17;0.00;;;6.90;99.90;;;;;;5022873;28;20018;-80
2024/01/05 08:38:14;;;;;;;0.65;0.00;;;6.80;99.90;;;;;;5024507;28;20026;-80
2024/01/05 08:40:41;;;;;;;0.10;0.00;;;6.90;99.90;;;;;;5022032;28;20140;-81
2024/01/05 08:43:07;;;;;;;1.27;0.00;;;8.30;99.90;;;;;;5023820;28;20022;-79
2024/01/05 08:45:34;;;;;;;0.90;0.10;;;6.90;99.90;;;;;;5024612;28;20060;-80
2024/01/05 08:48:00;;;;;;;1.65;0.05;;;6.90;99.90;;;;;;5021743;28;20029;-78
2024/01/05 08:50:26;;;;;;;0.45;0.00;;;6.90;99.90;;;;;;5024613;28;20018;-80
2024/01/05 08:52:51;;;;;;;0.47;0.00;;;7.00;99.90;;;;;;5023500;28;20109;-79
2024/01/05 08:55:20;;;;;;;0.95;0.00;;;6.90;99.90;;;;;;5023470;28;20021;-79
2024/01/05 08:57:47;;;;;;;3.58;0.00;;;6.90;99.90;;;;;;5024314;28;20101;-80
2024/01/05 09:00:13;;;;;;;0.00;0.00;;;;;;;;;;5023785;28;20022;-80
2024/01/05 09:02:39;;;;;;;0.90;0.00;;;6.80;99.90;;;;;;5021499;28;20030;-80
2024/01/05 09:05:05;;;;;;;0.85;0.00;;;;;;;;;;5023207;28;20098;-80
2024/01/05 09:07:34;;;;;;;0.30;0.15;;;6.90;99.90;;;;;;5020507;28;20057;-77
2024/01/05 09:10:01;;;;;;;0.90;0.00;;;8.00;99.90;;;;;;5016120;28;20022;-79
2024/01/05 09:12:27;;;;;;;2.15;0.00;;;6.80;99.90;;;;;;5017596;28;20034;-79
2024/01/05 09:14:53;;;;;;;0.10;0.00;;;6.70;99.90;;;;;;5023505;28;20465;-80
2024/01/05 09:17:19;;;;;;;0.10;0.00;;;6.70;99.90;;;;;;5024805;28;20094;-80
2024/01/05 09:19:44;;;;;;;0.35;0.00;;;6.80;99.90;;;;;;5024085;28;20065;-79
2024/01/05 09:22:10;;;;;;;0.00;0.00;;;6.70;99.90;;;;;;5018027;28;20022;-79
2024/01/05 09:24:36;;;;;;;2.85;0.10;;;6.70;99.90;;;;;;5021633;28;20022;-79
2024/01/05 09:27:02;;;;;;;1.20;0.00;;;6.70;99.90;;;;;;5020706;28;20113;-79
2024/01/05 09:29:31;;;;;;;0.10;0.00;;;6.70;99.90;;;;;;5019507;28;20041;-77
2024/01/05 09:31:57;;;;;;;2.22;0.17;;;6.70;99.90;;;;;;5014432;28;20076;-77
2024/01/05 09:34:23;;;;;;;0.75;0.00;;;6.70;99.90;;;;;;5015379;28;20412;-77
2024/01/05 09:36:50;;;;;;;0.70;0.30;;;6.70;99.90;;;;;;5014404;28;20116;-78
2024/01/05 09:39:16;;;;;;;0.75;0.20;;;6.70;99.90;;;;;;5014203;28;20080;-77
2024/01/05 09:41:42;;;;;;;1.73;0.10;;;6.70;99.90;;;;;;5014556;28;20026;-77
2024/01/05 09:44:10;;;;;;;1.38;0.30;;;6.70;99.90;;;;;;5014672;28;20026;-78
2024/01/05 09:46:38;;;;;;;0.43;0.00;;;6.70;99.90;;;;;;5013578;28;20030;-77
2024/01/05 09:49:06;;;;;;;1.08;0.00;;;6.70;99.90;;;;;;5014923;28;20026;-78
2024/01/05 09:51:32;;;;;;;1.38;0.13;;;6.70;99.90;;;;;;5014619;28;20080;-77
2024/01/05 09:53:57;;;;;;;1.85;0.17;;;6.60;99.90;;;;;;5014295;28;20018;-78
2024/01/05 09:56:24;;;;;;;0.80;0.03;;;;;;;;;;5014002;28;20487;-77
2024/01/05 09:58:51;;;;;;;1.98;0.82;;;6.60;99.90;;;;;;5014041;28;20497;-77
2024/01/05 10:01:37;;;;;;;2.45;0.10;;;6.60;99.90;;;;;;5014814;28;20033;-77
2024/01/05 10:04:03;;;;;;;0.10;0.00;;;6.60;99.90;;;;;;5014247;28;20079;-77
2024/01/05 10:06:30;;;;;;;0.30;0.10;;;6.50;99.90;;;;;;5014491;28;20057;-77
2024/01/05 10:08:58;;;;;;;0.32;0.00;;;6.50;99.90;;;;;;5015799;28;20459;-76
2024/01/05 10:11:41;;;;;;;0.10;0.10;;;7.30;99.90;;;;;;5015813;28;20048;-76
2024/01/05 10:14:09;;;;;;;0.93;0.10;;;6.50;99.90;;;;;;5016408;28;20030;-77
2024/01/05 10:16:39;;;;;;;0.20;0.03;;;6.50;99.90;;;;;;5015362;28;20100;-77
2024/01/05 10:19:15;;;;;;;0.55;0.10;;;6.50;99.90;;;;;;5014794;28;20053;-77
2024/01/05 10:21:42;;;;;;;0.17;0.10;;;6.40;99.90;;;;;;5015224;28;20108;-77
2024/01/05 10:24:29;;;;;;;3.20;0.65;;;6.40;99.90;;;;;;5019125;28;20022;-76
2024/01/05 10:27:12;;;;;;;1.10;0.20;;;6.40;99.90;;;;;;5018889;28;20355;-77
2024/01/05 10:29:42;;;;;;;0.30;0.10;;;6.40;99.90;;;;;;5018122;28;20125;-77
2024/01/05 10:32:15;;;;;;;0.50;0.38;;;6.40;99.90;;;;;;5017491;28;20068;-77
2024/01/05 10:34:45;;;;;;;1.92;0.60;;;6.40;99.90;;;;;;5017488;28;20145;-77
2024/01/05 10:37:13;;;;;;;1.58;0.17;;;6.70;99.90;;;;;;5018394;28;20072;-77
2024/01/05 10:39:47;;;;;;;3.38;0.75;;;6.50;99.90;;;;;;5017827;28;20466;-76
2024/01/05 10:42:27;;;;;;;0.60;0.40;;;6.50;99.90;;;;;;5016506;28;20018;-76
2024/01/05 10:44:54;;;;;;;0.60;0.30;;;6.50;99.90;;;;;;5015955;28;20519;-76
2024/01/05 10:47:25;;;;;;;2.15;0.60;;;6.60;99.90;;;;;;5016359;28;20049;-77
2024/01/05 10:49:55;;;;;;;2.97;0.60;;;6.50;99.90;;;;;;5015967;28;20034;-77
2024/01/05 10:52:26;;;;;;;0.98;0.40;;;6.50;99.90;;;;;;5015688;28;20076;-77
2024/01/05 10:54:52;;;;;;;1.50;1.02;;;6.60;99.90;;;;;;5018180;28;20084;-77
2024/01/05 10:57:19;;;;;;;0.98;0.30;;;6.50;99.90;;;;;;5017171;28;20026;-76
2024/01/05 10:59:54;;;;;;;2.60;0.52;;;6.50;99.90;;;;;;5016689;28;20439;-77
2024/01/05 11:02:43;;;;;;;1.20;0.60;;;6.50;99.90;;;;;;5017025;28;20029;-77
2024/01/05 11:05:11;;;;;;;0.60;0.57;;;6.60;99.90;;;;;;5016223;28;20029;-77
2024/01/05 11:07:37;;;;;;;0.87;0.50;;;6.60;99.90;;;;;;5015568;28;20032;-78
2024/01/05 11:10:44;;;;;;;2.42;0.60;;;6.50;99.90;;;;;;5016302;28;20072;-77
2024/01/05 11:13:41;;;;;;;1.30;0.88;;;6.60;99.90;;;;;;4956430;29;20434;-77
2024/01/05 11:16:47;;;;;;;1.48;1.10;;;6.70;99.90;;;;;;4951688;28;20023;-77
2024/01/05 11:19:27;;;;;;;1.30;0.75;;;6.60;99.90;;;;;;5032904;28;20038;-77
2024/01/05 11:21:55;;;;;;;2.75;0.55;;;6.60;99.90;;;;;;5036065;28;20029;-77
2024/01/05 11:24:22;;;;;;;1.48;0.75;;;6.60;99.90;;;;;;5035506;28;20036;-76
2024/01/05 11:26:48;;;;;;;0.93;0.70;;;6.60;99.90;;;;;;5035807;28;20033;-77
2024/01/05 11:29:46;;;;;;;1.55;0.85;;;6.60;99.90;;;;;;5035788;28;20030;-77
2024/01/05 11:32:42;;;;;;;1.03;0.77;;;6.60;99.90;;;;;;5036343;28;20028;-77
2024/01/05 11:35:16;;;;;;;1.52;0.73;;;6.60;99.90;;;;;;5036460;28;20026;-77
2024/01/05 11:37:46;;;;;;;3.33;0.60;;;6.60;99.90;;;;;;5034925;28;20021;-77
2024/01/05 11:40:36;;;;;;;0.77;0.57;;;6.60;99.90;;;;;;5036276;28;20025;-76
2024/01/05 11:43:33;;;;;;;1.27;0.82;;;6.70;99.90;;;;;;5034656;28;20017;-77
2024/01/05 11:45:58;;;;;;;3.00;0.45;;;6.70;99.90;;;;;;5036063;28;20026;-76
2024/01/05 11:48:33;;;;;;;0.80;0.22;;;6.70;99.90;;;;;;5034979;28;20441;-76
2024/01/05 11:51:02;;;;;;;0.73;0.60;;;6.80;99.90;;;;;;5035915;28;20112;-76
2024/01/05 11:53:29;;;;;;;0.93;0.82;;;6.70;99.90;;;;;;5036640;28;20018;-76
2024/01/05 11:55:56;;;;;;;1.23;0.38;;;6.70;99.90;;;;;;5036599;28;20099;-76
2024/01/05 11:58:27;;;;;;;0.77;0.30;;;6.70;99.90;;;;;;5035974;28;20489;-76
2024/01/05 12:00:55;;;;;;;1.67;0.50;;;6.70;99.90;;;;;;5036284;28;20036;-76
2024/01/05 12:03:23;;;;;;;0.40;0.40;;;6.70;99.90;;;;;;5036988;28;20112;-76
2024/01/05 12:05:58;;;;;;;1.25;0.75;;;6.70;99.90;;;;;;5034712;28;20045;-76
2024/01/05 12:08:24;;;;;;;1.35;1.02;;;6.70;99.90;;;;;;5036878;28;20052;-76
2024/01/05 12:10:55;;;;;;;1.55;0.75;;;6.70;99.90;;;;;;5034243;28;20018;-77
2024/01/05 12:13:23;;;;;;;0.88;0.80;;;6.60;99.90;;;;;;5034077;28;20022;-76
2024/01/05 12:15:53;;;;;;;0.67;0.57;;;6.60;99.90;;;;;;5034910;28;20021;-76
2024/01/05 12:18:25;;;;;;;1.48;1.10;;;6.60;99.90;;;;;;5033457;28;20026;-77
2024/01/05 12:20:55;;;;;;;1.98;1.00;;;6.60;99.90;;;;;;5035485;28;20374;-77
2024/01/05 12:23:21;;;;;;;1.58;0.65;;;6.70;99.90;;;;;;5035856;28;20067;-76
2024/01/05 12:25:59;;;;;;;1.02;0.60;;;6.70;99.90;;;;;;5035654;28;20025;-76
2024/01/05 12:28:28;;;;;;;0.90;0.38;;;6.70;99.90;;;;;;5035964;28;20483;-76
2024/01/05 12:30:54;;;;;;;1.60;0.63;;;6.70;99.90;;;;;;5034920;28;20077;-76
2024/01/05 12:33:20;;;;;;;2.67;1.10;;;6.70;99.90;;;;;;5035128;28;20264;-76
2024/01/05 12:35:48;;;;;;;3.42;0.88;;;6.80;99.90;;;;;;5034578;28;20103;-76
2024/01/05 12:38:21;;;;;;;3.13;0.85;;;6.90;99.90;;;;;;5033622;28;20014;-75
2024/01/05 12:40:46;;;;;;;2.95;1.27;;;6.80;99.90;;;;;;5034800;28;20447;-75
2024/01/05 12:43:12;;;;;;;2.45;1.58;;;6.90;99.90;;;;;;5034369;28;20022;-75
2024/01/05 12:45:38;;;;;;;2.28;1.80;;;7.00;99.90;;;;;;5035193;28;20025;-75
2024/01/05 12:48:10;;;;;;;2.78;1.65;;;7.00;99.90;;;;;;5034972;28;20025;-75
2024/01/05 12:50:36;;;;;;;4.15;2.28;;;7.00;99.90;;;;;;5033473;28;20071;-75
2024/01/05 12:53:15;;;;;;;6.70;2.40;;;7.00;99.90;;;;;;5034765;28;20029;-76
2024/01/05 12:55:40;;;;;;;;;;;7.20;99.90;;;;;;5035557;28;20101;-75
2024/01/05 12:58:06;;;;;;;9.05;3.28;;;7.20;99.90;;;;;;5035535;28;19971;-77
2024/01/05 13:00:38;;;;;;;9.80;3.72;;;7.40;99.90;;;;;;5034878;28;20075;-77
2024/01/05 13:03:04;;;;;;;8.20;3.70;;;7.50;99.90;;;;;;5034938;28;20369;-77